createdAt,value
2023-03-06T00:00:47.595Z,60.70
2023-03-06T00:03:14.193Z,68.00
2023-03-06T00:05:40.711Z,50.90
2023-03-06T00:08:07.171Z,47.10
2023-03-06T00:10:34.049Z,52.80
2023-03-06T00:13:07.009Z,55.90
2023-03-06T00:15:34.156Z,50.10
2023-03-06T00:18:05.174Z,54.80
2023-03-06T00:20:31.910Z,52.60
2023-03-06T00:22:58.619Z,78.10
2023-03-06T00:25:26.063Z,104.00
2023-03-06T00:27:53.251Z,141.30
2023-03-06T00:30:24.158Z,152.40
2023-03-06T00:32:53.467Z,182.40
2023-03-06T00:35:20.608Z,195.20
2023-03-06T00:37:47.576Z,228.10
2023-03-06T00:40:21.025Z,175.60
2023-03-06T00:42:47.941Z,120.20
2023-03-06T00:45:14.895Z,117.10
2023-03-06T00:47:41.788Z,137.40
2023-03-06T00:50:10.453Z,133.00
2023-03-06T00:52:37.123Z,123.60
2023-03-06T00:55:04.956Z,135.80
2023-03-06T00:57:31.548Z,214.00
2023-03-06T00:59:57.936Z,200.00
2023-03-06T01:02:25.015Z,137.30
2023-03-06T01:04:51.537Z,109.40
2023-03-06T01:07:18.104Z,103.40
2023-03-06T01:09:44.526Z,84.80
2023-03-06T01:12:11.241Z,95.20
2023-03-06T01:14:37.749Z,79.30
2023-03-06T01:17:04.700Z,62.60
2023-03-06T01:19:31.123Z,61.70
2023-03-06T01:21:57.549Z,55.70
2023-03-06T01:24:25.725Z,77.10
2023-03-06T01:26:52.456Z,86.20
2023-03-06T01:29:18.907Z,69.60
2023-03-06T01:31:45.342Z,62.00
2023-03-06T01:34:12.017Z,70.30
2023-03-06T01:36:38.436Z,60.70
2023-03-06T01:39:05.016Z,61.70
2023-03-06T01:41:32.694Z,56.60
2023-03-06T01:43:59.464Z,53.80
2023-03-06T01:46:42.358Z,63.90
2023-03-06T01:49:37.636Z,74.40
2023-03-06T01:52:11.517Z,100.40
2023-03-06T01:54:49.286Z,97.20
2023-03-06T01:57:35.237Z,83.40
2023-03-06T02:00:16.148Z,74.10
2023-03-06T02:02:50.024Z,58.30
2023-03-06T02:05:16.648Z,45.50
2023-03-06T02:07:45.170Z,43.90
2023-03-06T02:12:59.423Z,43.30
2023-03-06T02:15:29.644Z,41.80
2023-03-06T02:17:56.493Z,45.90
2023-03-06T02:20:37.418Z,45.90
2023-03-06T02:23:29.501Z,52.70
2023-03-06T02:25:57.390Z,60.70
2023-03-06T02:28:25.130Z,53.70
2023-03-06T02:30:55.564Z,47.40
2023-03-06T02:33:27.597Z,55.10
2023-03-06T02:35:57.599Z,68.20
2023-03-06T02:38:34.118Z,61.70
2023-03-06T02:41:04.913Z,57.30
2023-03-06T02:43:38.674Z,51.20
2023-03-06T02:46:05.769Z,57.90
2023-03-06T02:48:32.234Z,51.80
2023-03-06T02:50:58.784Z,43.00
2023-03-06T02:53:25.432Z,47.10
2023-03-06T02:55:52.068Z,46.70
2023-03-06T02:58:20.152Z,44.50
2023-03-06T03:00:48.969Z,42.10
2023-03-06T03:03:15.620Z,38.10
2023-03-06T03:05:42.192Z,35.80
2023-03-06T03:08:09.031Z,34.50
2023-03-06T03:10:35.690Z,41.70
2023-03-06T03:13:02.380Z,29.80
2023-03-06T03:15:28.771Z,31.20
2023-03-06T03:17:55.265Z,32.60
2023-03-06T03:20:22.709Z,30.80
2023-03-06T03:22:51.884Z,30.90
2023-03-06T03:25:19.029Z,42.50
2023-03-06T03:27:45.988Z,57.30
2023-03-06T03:30:14.061Z,55.40
2023-03-06T03:32:40.905Z,51.40
2023-03-06T03:35:09.412Z,44.90
2023-03-06T03:37:36.741Z,50.00
2023-03-06T03:40:06.265Z,47.60
2023-03-06T03:42:32.758Z,46.00
2023-03-06T03:44:59.126Z,39.80
2023-03-06T03:47:25.695Z,33.20
2023-03-06T03:49:52.051Z,34.70
2023-03-06T03:52:18.573Z,36.40
2023-03-06T03:54:45.103Z,32.20
2023-03-06T03:57:11.550Z,37.30
2023-03-06T03:59:38.066Z,35.00
2023-03-06T04:02:05.087Z,33.00
2023-03-06T04:04:32.038Z,36.80
2023-03-06T04:06:58.524Z,29.80
2023-03-06T04:09:24.914Z,30.10
2023-03-06T04:11:51.347Z,28.00
2023-03-06T04:14:17.868Z,38.80
2023-03-06T04:16:44.275Z,60.10
2023-03-06T04:19:11.680Z,64.10
2023-03-06T04:21:38.174Z,57.20
2023-03-06T04:24:05.364Z,47.00
2023-03-06T04:26:31.866Z,38.30
2023-03-06T04:28:58.597Z,36.30
2023-03-06T04:31:25.475Z,36.00
2023-03-06T04:33:52.071Z,43.00
2023-03-06T04:36:34.178Z,42.90
2023-03-06T04:39:02.396Z,36.00
2023-03-06T04:41:28.933Z,43.90
2023-03-06T04:43:55.331Z,42.30
2023-03-06T04:46:22.027Z,39.60
2023-03-06T04:48:48.425Z,42.30
2023-03-06T04:51:15.452Z,42.20
2023-03-06T04:53:41.884Z,31.60
2023-03-06T04:56:08.858Z,34.60
2023-03-06T04:58:35.592Z,37.70
2023-03-06T05:01:02.734Z,43.90
2023-03-06T05:03:29.407Z,38.20
2023-03-06T05:05:55.981Z,33.40
2023-03-06T05:08:23.833Z,37.90
2023-03-06T05:11:01.551Z,38.30
2023-03-06T05:13:29.256Z,38.80
2023-03-06T05:16:01.585Z,42.50
2023-03-06T05:18:28.038Z,47.60
2023-03-06T05:20:59.297Z,48.30
2023-03-06T05:23:28.593Z,47.70
2023-03-06T05:25:55.624Z,49.80
2023-03-06T05:28:22.171Z,39.10
2023-03-06T05:30:49.533Z,43.00
2023-03-06T05:33:15.963Z,39.20
2023-03-06T05:35:48.129Z,38.10
2023-03-06T05:38:16.179Z,48.00
2023-03-06T05:40:44.575Z,47.50
2023-03-06T05:43:12.133Z,38.30
2023-03-06T05:45:40.112Z,41.40
2023-03-06T05:48:08.248Z,49.60
2023-03-06T05:50:35.062Z,44.80
2023-03-06T05:53:01.936Z,46.30
2023-03-06T05:55:28.483Z,45.30
2023-03-06T05:57:55.262Z,54.60
2023-03-06T06:00:22.742Z,64.40
2023-03-06T06:02:49.182Z,75.20
2023-03-06T06:05:15.796Z,77.20
2023-03-06T06:07:42.520Z,76.00
2023-03-06T06:10:10.791Z,68.20
2023-03-06T06:12:37.310Z,70.00
2023-03-06T06:15:04.984Z,60.90
2023-03-06T06:17:31.742Z,53.50
2023-03-06T06:19:58.162Z,48.60
2023-03-06T06:22:24.729Z,53.50
2023-03-06T06:24:51.203Z,50.00
2023-03-06T06:27:17.747Z,43.70
2023-03-06T06:29:44.208Z,46.00
2023-03-06T06:32:10.685Z,46.10
2023-03-06T06:34:37.147Z,44.90
2023-03-06T06:37:03.718Z,44.00
2023-03-06T06:39:30.535Z,38.80
2023-03-06T06:42:15.235Z,46.10
2023-03-06T06:44:44.005Z,46.00
2023-03-06T06:47:26.371Z,36.80
2023-03-06T06:49:55.331Z,35.40
2023-03-06T06:52:23.544Z,46.00
2023-03-06T06:54:50.289Z,39.30
2023-03-06T06:57:17.281Z,46.00
2023-03-06T06:59:43.821Z,43.40
2023-03-06T07:02:15.790Z,51.50
2023-03-06T07:05:00.224Z,37.90
2023-03-06T07:07:29.023Z,40.30
2023-03-06T07:09:55.772Z,38.20
2023-03-06T07:12:22.481Z,35.00
2023-03-06T07:14:48.988Z,44.00
2023-03-06T07:17:15.393Z,47.30
2023-03-06T07:19:54.264Z,43.50
2023-03-06T07:22:20.752Z,38.50
2023-03-06T07:24:47.134Z,34.70
2023-03-06T07:27:13.571Z,42.70
2023-03-06T07:29:43.546Z,33.80
2023-03-06T07:32:21.353Z,30.60
2023-03-06T07:34:48.226Z,43.40
2023-03-06T07:37:15.046Z,42.60
2023-03-06T07:39:41.581Z,40.70
2023-03-06T07:42:07.985Z,44.90
2023-03-06T07:44:43.569Z,34.20
2023-03-06T07:47:13.636Z,45.30
2023-03-06T07:49:40.094Z,41.70
2023-03-06T07:52:06.617Z,43.90
2023-03-06T07:54:39.507Z,28.30
2023-03-06T07:57:05.987Z,27.60
2023-03-06T07:59:32.359Z,27.90
2023-03-06T08:01:58.795Z,24.60
2023-03-06T08:04:25.265Z,27.20
2023-03-06T08:06:53.554Z,27.10
2023-03-06T08:09:30.489Z,27.80
2023-03-06T08:11:57.009Z,23.60
2023-03-06T08:14:23.445Z,23.70
2023-03-06T08:16:51.198Z,30.50
2023-03-06T08:19:17.988Z,30.10
2023-03-06T08:21:53.376Z,27.10
2023-03-06T08:24:20.101Z,23.10
2023-03-06T08:26:47.214Z,24.60
2023-03-06T08:29:15.368Z,26.20
2023-03-06T08:31:45.573Z,26.10
2023-03-06T08:34:20.498Z,28.80
2023-03-06T08:36:47.188Z,30.70
2023-03-06T08:39:14.133Z,35.90
2023-03-06T08:41:42.208Z,29.50
2023-03-06T08:44:24.680Z,33.40
2023-03-06T08:46:51.100Z,26.10
2023-03-06T08:49:17.520Z,27.50
2023-03-06T08:51:43.990Z,35.20
2023-03-06T08:54:14.067Z,37.20
2023-03-06T08:56:49.354Z,29.30
2023-03-06T08:59:15.767Z,27.20
2023-03-06T09:01:42.286Z,29.50
2023-03-06T09:04:11.819Z,34.20
2023-03-06T09:06:57.607Z,40.90
2023-03-06T09:09:24.020Z,39.10
2023-03-06T09:11:51.284Z,32.30
2023-03-06T09:14:17.702Z,31.30
2023-03-06T09:16:44.308Z,35.10
2023-03-06T09:19:10.911Z,31.20
2023-03-06T09:21:37.371Z,35.30
2023-03-06T09:24:03.974Z,42.90
2023-03-06T09:26:45.179Z,36.00
2023-03-06T09:29:12.853Z,36.30
2023-03-06T09:31:42.543Z,40.00
2023-03-06T09:34:09.012Z,38.70
2023-03-06T09:36:49.323Z,47.30
2023-03-06T09:39:20.077Z,34.90
2023-03-06T09:41:49.842Z,32.90
2023-03-06T09:44:21.159Z,28.00
2023-03-06T09:47:35.921Z,34.00
2023-03-06T09:50:22.521Z,34.90
2023-03-06T09:53:37.962Z,30.90
2023-03-06T09:56:18.220Z,37.20
2023-03-06T09:58:55.964Z,36.10
2023-03-06T10:01:39.898Z,40.50
2023-03-06T10:04:32.124Z,39.20
2023-03-06T10:07:11.301Z,41.10
2023-03-06T10:09:49.465Z,44.70
2023-03-06T10:12:44.669Z,38.40
2023-03-06T10:15:22.383Z,34.70
2023-03-06T10:17:52.368Z,32.10
2023-03-06T10:20:30.478Z,29.90
2023-03-06T10:23:12.167Z,27.30
2023-03-06T10:26:02.436Z,31.10
2023-03-06T10:28:40.289Z,66.30
2023-03-06T10:31:26.645Z,49.60
2023-03-06T10:34:18.553Z,80.80
2023-03-06T10:36:45.003Z,45.70
2023-03-06T10:39:22.867Z,40.20
2023-03-06T10:41:50.083Z,34.00
2023-03-06T10:44:19.951Z,29.10
2023-03-06T10:46:51.014Z,33.70
2023-03-06T10:49:30.993Z,29.00
2023-03-06T10:52:05.670Z,51.10
2023-03-06T10:54:39.991Z,36.90
2023-03-06T10:57:32.378Z,33.50
2023-03-06T11:00:04.834Z,35.40
2023-03-06T11:02:41.176Z,33.50
2023-03-06T11:05:26.034Z,47.00
2023-03-06T11:08:01.470Z,40.40
2023-03-06T11:10:31.516Z,31.00
2023-03-06T11:13:26.098Z,22.30
2023-03-06T11:16:06.457Z,23.20
2023-03-06T11:19:01.391Z,22.40
2023-03-06T11:21:34.649Z,49.90
2023-03-06T11:24:21.842Z,40.70
2023-03-06T11:26:56.559Z,32.00
2023-03-06T11:29:29.619Z,48.60
2023-03-06T11:32:17.875Z,45.80
2023-03-06T11:34:58.989Z,37.80
2023-03-06T11:37:31.620Z,48.50
2023-03-06T11:40:10.636Z,45.60
2023-03-06T11:42:49.656Z,25.70
2023-03-06T11:48:13.869Z,31.70
2023-03-06T11:50:53.399Z,29.50
2023-03-06T11:53:38.153Z,34.80
2023-03-06T11:56:31.946Z,24.90
2023-03-06T11:59:40.110Z,22.50
2023-03-06T12:02:39.933Z,23.70
2023-03-06T12:05:24.873Z,26.10
2023-03-06T12:08:20.641Z,24.20
2023-03-06T12:10:54.338Z,21.60
2023-03-06T12:13:58.978Z,24.40
2023-03-06T12:16:44.567Z,18.90
2023-03-06T12:19:54.183Z,26.00
2023-03-06T12:23:15.725Z,31.10
2023-03-06T12:26:20.224Z,47.10
2023-03-06T12:28:51.344Z,36.70
2023-03-06T12:32:16.809Z,33.80
2023-03-06T12:35:06.008Z,20.30
2023-03-06T12:38:51.668Z,44.70
2023-03-06T12:41:28.566Z,26.00
2023-03-06T12:44:31.718Z,34.70
2023-03-06T12:47:03.904Z,21.90
2023-03-06T12:49:38.576Z,27.80
2023-03-06T12:52:21.608Z,28.10
2023-03-06T12:54:53.599Z,24.70
2023-03-06T12:57:24.836Z,23.70
2023-03-06T12:59:53.451Z,25.80
2023-03-06T13:02:31.770Z,26.80
2023-03-06T13:05:30.478Z,22.70
2023-03-06T13:08:52.752Z,33.40
2023-03-06T13:11:49.847Z,22.20
2023-03-06T13:14:54.565Z,24.40
2023-03-06T13:17:24.260Z,34.80
2023-03-06T13:20:42.825Z,30.30
2023-03-06T13:23:47.902Z,25.00
2023-03-06T13:26:26.614Z,29.30
2023-03-06T13:28:57.800Z,21.10
2023-03-06T13:31:36.626Z,25.90
2023-03-06T13:34:06.565Z,29.70
2023-03-06T13:36:39.168Z,38.70
2023-03-06T13:39:11.168Z,37.80
2023-03-06T13:41:55.930Z,29.50
2023-03-06T13:44:25.238Z,33.90
2023-03-06T13:47:31.050Z,34.10
2023-03-06T13:49:58.974Z,48.00
2023-03-06T13:52:57.962Z,38.50
2023-03-06T13:55:50.714Z,34.70
2023-03-06T13:58:48.621Z,36.70
2023-03-06T14:01:47.369Z,26.40
2023-03-06T14:04:58.632Z,28.10
2023-03-06T14:07:35.804Z,30.20
2023-03-06T14:10:14.386Z,35.30
2023-03-06T14:12:58.522Z,36.90
2023-03-06T14:15:44.608Z,43.50
2023-03-06T14:18:26.326Z,40.60
2023-03-06T14:21:09.104Z,34.40
2023-03-06T14:23:42.388Z,45.20
2023-03-06T14:26:26.290Z,41.50
2023-03-06T14:28:52.641Z,48.10
2023-03-06T14:31:25.636Z,48.20
2023-03-06T14:33:59.530Z,53.30
2023-03-06T14:36:57.253Z,51.30
2023-03-06T14:39:44.632Z,48.30
2023-03-06T14:42:33.588Z,51.10
2023-03-06T14:45:16.547Z,44.40
2023-03-06T14:47:49.135Z,44.80
2023-03-06T14:50:26.028Z,45.40
2023-03-06T14:53:22.263Z,50.70
2023-03-06T14:56:05.950Z,42.80
2023-03-06T14:58:42.259Z,39.60
2023-03-06T15:01:11.359Z,49.00
2023-03-06T15:03:49.508Z,43.20
2023-03-06T15:06:40.277Z,59.00
2023-03-06T15:09:25.319Z,65.50
2023-03-06T15:12:05.373Z,119.80
2023-03-06T15:14:47.693Z,79.00
2023-03-06T15:17:18.524Z,43.30
2023-03-06T15:19:49.079Z,51.20
2023-03-06T15:22:41.429Z,46.70
2023-03-06T15:25:30.268Z,45.00
2023-03-06T15:28:20.055Z,47.40
2023-03-06T15:31:21.079Z,47.70
2023-03-06T15:34:09.244Z,50.80
2023-03-06T15:36:42.137Z,62.00
2023-03-06T15:39:40.229Z,62.60
2023-03-06T15:42:20.247Z,59.70
2023-03-06T15:44:51.064Z,50.60
2023-03-06T15:47:17.719Z,28.50
2023-03-06T15:49:55.832Z,28.20
2023-03-06T15:52:25.586Z,26.40
2023-03-06T15:54:52.072Z,27.30
2023-03-06T15:57:31.343Z,22.40
2023-03-06T16:00:00.249Z,23.90
2023-03-06T16:02:26.876Z,41.00
2023-03-06T16:04:53.585Z,100.90
2023-03-06T16:07:20.626Z,53.00
2023-03-06T16:09:47.403Z,52.90
2023-03-06T16:12:17.824Z,63.60
2023-03-06T16:14:47.277Z,36.30
2023-03-06T16:17:14.705Z,40.40
2023-03-06T16:19:42.219Z,49.60
2023-03-06T16:22:08.667Z,66.20
2023-03-06T16:24:35.212Z,68.00
2023-03-06T16:27:02.816Z,73.10
2023-03-06T16:29:30.418Z,43.30
2023-03-06T16:31:58.780Z,46.50
2023-03-06T16:34:25.655Z,35.40
2023-03-06T16:36:52.671Z,32.20
2023-03-06T16:39:22.986Z,38.10
2023-03-06T16:41:50.315Z,22.50
2023-03-06T16:44:16.961Z,43.30
2023-03-06T16:46:47.030Z,30.90
2023-03-06T16:49:18.313Z,25.60
2023-03-06T16:51:45.420Z,131.70
2023-03-06T16:54:12.905Z,100.80
2023-03-06T16:56:39.465Z,31.50
2023-03-06T16:59:06.511Z,28.10
2023-03-06T17:01:33.157Z,29.60
2023-03-06T17:03:59.920Z,73.40
2023-03-06T17:06:26.420Z,56.40
2023-03-06T17:08:52.835Z,42.50
2023-03-06T17:11:22.162Z,31.60
2023-03-06T17:13:48.819Z,30.00
2023-03-06T17:16:16.719Z,24.50
2023-03-06T17:18:45.604Z,27.00
2023-03-06T17:21:15.657Z,42.50
2023-03-06T17:23:42.437Z,35.60
2023-03-06T17:26:15.594Z,33.60
2023-03-06T17:28:43.050Z,42.30
2023-03-06T17:31:22.569Z,49.30
2023-03-06T17:33:51.740Z,54.20
2023-03-06T17:36:19.308Z,44.10
2023-03-06T17:38:46.117Z,44.80
2023-03-06T17:41:13.196Z,107.40
2023-03-06T17:43:40.719Z,58.10
2023-03-06T17:46:14.082Z,59.20
2023-03-06T17:48:40.618Z,51.80
2023-03-06T17:51:07.708Z,86.70
2023-03-06T17:53:34.444Z,108.10
2023-03-06T17:56:05.164Z,105.80
2023-03-06T17:58:32.238Z,114.10
2023-03-06T18:00:59.311Z,58.80
2023-03-06T18:03:25.759Z,50.10
2023-03-06T18:06:03.966Z,44.70
2023-03-06T18:08:30.969Z,57.80
2023-03-06T18:11:04.420Z,64.60
2023-03-06T18:13:32.473Z,64.70
2023-03-06T18:16:00.350Z,57.50
2023-03-06T18:18:27.630Z,56.90
2023-03-06T18:20:54.134Z,50.80
2023-03-06T18:23:20.675Z,53.50
2023-03-06T18:25:47.399Z,51.20
2023-03-06T18:28:13.987Z,55.20
2023-03-06T18:30:42.322Z,54.30
2023-03-06T18:33:10.171Z,51.30
2023-03-06T18:35:37.286Z,55.20
2023-03-06T18:38:03.800Z,57.70
2023-03-06T18:40:30.233Z,62.60
2023-03-06T18:42:56.692Z,57.30
2023-03-06T18:45:23.158Z,62.70
2023-03-06T18:47:49.570Z,62.10
2023-03-06T18:50:17.767Z,62.90
2023-03-06T18:52:44.629Z,86.10
2023-03-06T18:55:12.191Z,81.90
2023-03-06T18:57:39.245Z,122.10
2023-03-06T19:00:09.439Z,87.00
2023-03-06T19:02:36.037Z,81.70
2023-03-06T19:05:02.609Z,123.30
2023-03-06T19:07:29.029Z,176.10
2023-03-06T19:09:55.496Z,178.40
2023-03-06T19:12:22.019Z,167.10
2023-03-06T19:14:48.585Z,118.70
2023-03-06T19:17:14.962Z,85.60
2023-03-06T19:19:41.497Z,86.70
2023-03-06T19:22:07.938Z,76.20
2023-03-06T19:24:34.776Z,94.00
2023-03-06T19:27:01.201Z,86.30
2023-03-06T19:29:28.501Z,103.00
2023-03-06T19:31:57.148Z,80.30
2023-03-06T19:34:23.688Z,87.80
2023-03-06T19:36:50.718Z,84.10
2023-03-06T19:39:17.073Z,103.00
2023-03-06T19:41:43.490Z,148.90
2023-03-06T19:44:10.012Z,133.80
2023-03-06T19:46:36.449Z,83.70
2023-03-06T19:49:09.969Z,71.00
2023-03-06T19:51:37.003Z,80.00
2023-03-06T19:54:03.641Z,80.30
2023-03-06T19:56:31.890Z,68.10
2023-03-06T19:58:58.456Z,65.50
2023-03-06T20:01:28.171Z,60.60
2023-03-06T20:04:00.151Z,51.60
2023-03-06T20:06:37.521Z,44.00
2023-03-06T20:09:08.302Z,49.10
2023-03-06T20:11:35.396Z,41.50
2023-03-06T20:14:04.684Z,45.00
2023-03-06T20:16:32.404Z,49.10
2023-03-06T20:19:00.983Z,61.20
2023-03-06T20:21:31.007Z,54.40
2023-03-06T20:23:58.210Z,58.50
2023-03-06T20:26:28.236Z,67.50
2023-03-06T20:28:55.434Z,60.60
2023-03-06T20:31:26.231Z,55.20
2023-03-06T20:33:56.053Z,60.90
2023-03-06T20:36:30.069Z,46.20
2023-03-06T20:39:00.367Z,40.80
2023-03-06T20:41:30.498Z,44.90
2023-03-06T20:43:59.658Z,45.50
2023-03-06T20:46:26.316Z,43.30
2023-03-06T20:48:54.302Z,33.30
2023-03-06T20:51:33.814Z,33.70
2023-03-06T20:54:01.817Z,33.30
2023-03-06T20:56:32.148Z,33.40
2023-03-06T20:58:59.239Z,34.10
2023-03-06T21:01:30.628Z,28.50
2023-03-06T21:03:58.698Z,33.10
2023-03-06T21:06:29.129Z,38.30
2023-03-06T21:09:01.161Z,29.70
2023-03-06T21:11:28.517Z,32.90
2023-03-06T21:13:55.683Z,23.40
2023-03-06T21:16:25.667Z,31.70
2023-03-06T21:18:55.351Z,38.10
2023-03-06T21:21:25.806Z,31.80
2023-03-06T21:23:52.423Z,22.60
2023-03-06T21:26:22.893Z,30.80
2023-03-06T21:28:49.789Z,21.30
2023-03-06T21:31:18.620Z,18.10
2023-03-06T21:33:46.399Z,20.40
2023-03-06T21:36:13.754Z,25.20
2023-03-06T21:38:40.426Z,22.00
2023-03-06T21:41:17.140Z,21.10
2023-03-06T21:43:43.906Z,19.40
2023-03-06T21:46:11.435Z,19.20
2023-03-06T21:48:38.457Z,19.90
2023-03-06T21:51:13.237Z,16.30
2023-03-06T21:53:43.328Z,15.80
2023-03-06T21:56:11.686Z,16.20
2023-03-06T21:58:38.832Z,15.50
2023-03-06T22:01:18.090Z,16.90
2023-03-06T22:03:45.369Z,15.60
2023-03-06T22:06:17.924Z,14.30
2023-03-06T22:08:45.047Z,18.20
2023-03-06T22:11:23.052Z,16.40
2023-03-06T22:13:49.997Z,15.10
2023-03-06T22:16:17.670Z,10.30
2023-03-06T22:18:47.258Z,10.60
2023-03-06T22:21:16.903Z,10.80
2023-03-06T22:23:44.261Z,11.20
2023-03-06T22:26:13.562Z,11.60
2023-03-06T22:28:41.749Z,10.30
2023-03-06T22:31:15.054Z,13.50
2023-03-06T22:33:41.955Z,12.70
2023-03-06T22:36:13.789Z,15.20
2023-03-06T22:38:43.628Z,16.10
2023-03-06T22:41:11.430Z,13.00
2023-03-06T22:43:37.996Z,14.50
2023-03-06T22:46:09.216Z,14.00
2023-03-06T22:48:36.154Z,14.00
2023-03-06T22:51:13.558Z,13.30
2023-03-06T22:53:40.255Z,18.40
2023-03-06T22:56:10.327Z,13.80
2023-03-06T22:58:38.040Z,17.10
2023-03-06T23:01:13.672Z,19.30
2023-03-06T23:03:43.955Z,21.70
2023-03-06T23:06:26.183Z,19.90
2023-03-06T23:08:57.467Z,21.60
2023-03-06T23:11:27.661Z,22.60
2023-03-06T23:13:55.005Z,22.90
2023-03-06T23:16:21.548Z,21.20
2023-03-06T23:18:48.336Z,21.30
2023-03-06T23:21:18.470Z,18.60
2023-03-06T23:23:49.744Z,22.40
2023-03-06T23:26:18.725Z,21.90
2023-03-06T23:28:45.502Z,20.50
2023-03-06T23:31:16.795Z,16.50
2023-03-06T23:33:43.772Z,21.10
2023-03-06T23:36:14.303Z,18.30
2023-03-06T23:38:41.022Z,18.60
2023-03-06T23:41:15.411Z,19.10
2023-03-06T23:43:42.641Z,21.20
2023-03-06T23:46:09.184Z,18.50
2023-03-06T23:48:39.055Z,23.70
2023-03-06T23:51:15.223Z,26.50
2023-03-06T23:53:42.719Z,20.00
2023-03-06T23:56:09.873Z,24.90
2023-03-06T23:58:37.336Z,22.30
